Time;durP1;ratioP1;P1;durP2;ratioP2;P2;SDS_P1;SDS_P2;PMS_P1;PMS_P2;Temp;Humidity;BMP_temperature;BMP_pressure;BME280_temperature;BME280_humidity;BME280_pressure;Samples;Min_cycle;Max_cycle;Signal;HPM_P1;HPM_P2
2022/04/16 00:01:24;;;;;;;18.60;11.07;;;5.00;99.90;;;;;;8282424;28;20235;-64
2022/04/16 00:05:25;;;;;;;15.93;10.80;;;5.00;99.90;;;;;;8289689;28;20190;-63
2022/04/16 00:09:26;;;;;;;14.17;10.00;;;4.90;99.90;;;;;;8283544;28;20191;-65
2022/04/16 00:13:27;;;;;;;15.97;9.87;;;4.90;99.90;;;;;;8289229;28;20770;-65
2022/04/16 00:17:28;;;;;;;14.83;9.53;;;4.80;99.90;;;;;;8285081;28;20197;-64
2022/04/16 00:21:29;;;;;;;17.23;10.50;;;4.70;99.90;;;;;;8284844;28;20275;-65
2022/04/16 00:25:32;;;;;;;18.17;9.80;;;4.60;99.90;;;;;;8285698;28;20199;-67
2022/04/16 00:29:34;;;;;;;16.20;10.47;;;4.60;99.90;;;;;;8285436;28;20205;-65
2022/04/16 00:33:35;;;;;;;10.70;8.20;;;4.60;99.90;;;;;;8284917;28;20189;-64
2022/04/16 00:37:36;;;;;;;13.50;8.70;;;4.50;99.90;;;;;;8291683;28;20191;-64
2022/04/16 00:41:39;;;;;;;13.43;8.50;;;4.40;99.90;;;;;;8291412;28;20416;-65
2022/04/16 00:45:40;;;;;;;11.73;7.53;;;4.30;99.90;;;;;;8292704;28;20184;-67
2022/04/16 00:49:41;;;;;;;12.20;7.70;;;4.30;99.90;;;;;;8289529;28;20279;-64
2022/04/16 00:53:42;;;;;;;13.50;7.47;;;4.30;99.90;;;;;;8294575;28;20219;-65
2022/04/16 00:57:43;;;;;;;8.17;6.67;;;4.30;99.90;;;;;;8285489;28;20187;-65
2022/04/16 01:01:44;;;;;;;13.07;5.97;;;4.30;99.90;;;;;;8291048;28;20208;-62
2022/04/16 01:05:45;;;;;;;7.57;5.63;;;4.30;99.90;;;;;;8282910;28;20250;-63
2022/04/16 01:09:45;;;;;;;6.00;4.50;;;4.30;99.90;;;;;;8284625;28;20179;-65
2022/04/16 01:13:48;;;;;;;6.97;4.80;;;4.20;99.90;;;;;;8287435;28;20193;-62
2022/04/16 01:17:49;;;;;;;5.63;4.07;;;4.20;99.90;;;;;;8282948;28;20218;-64
2022/04/16 01:21:51;;;;;;;8.10;3.97;;;4.10;99.90;;;;;;8289386;28;20241;-63
2022/04/16 01:25:51;;;;;;;4.37;2.90;;;4.00;99.90;;;;;;8289623;28;20191;-64
2022/04/16 01:29:53;;;;;;;4.47;2.70;;;3.90;99.90;;;;;;8293417;28;20489;-63
2022/04/16 01:33:54;;;;;;;7.03;2.73;;;3.90;99.90;;;;;;8288903;28;20184;-62
2022/04/16 01:37:55;;;;;;;4.70;3.57;;;3.80;99.90;;;;;;8281152;28;20183;-64
2022/04/16 01:41:59;;;;;;;4.13;2.77;;;3.70;99.90;;;;;;8298565;28;20223;-64
2022/04/16 01:46:02;;;;;;;3.67;2.30;;;3.70;99.90;;;;;;8286779;28;20204;-66
2022/04/16 01:50:05;;;;;;;4.83;2.37;;;3.60;99.90;;;;;;8286298;28;20183;-63
2022/04/16 01:54:06;;;;;;;3.40;2.27;;;3.70;99.90;;;;;;8286500;28;20183;-64
2022/04/16 01:58:07;;;;;;;6.27;2.33;;;3.60;99.90;;;;;;8285461;28;20222;-63
2022/04/16 02:02:07;;;;;;;4.50;2.30;;;3.60;99.90;;;;;;8286970;28;20273;-63
2022/04/16 02:06:08;;;;;;;5.37;2.70;;;3.60;99.90;;;;;;8294219;28;20184;-65
2022/04/16 02:10:12;;;;;;;3.63;2.03;;;3.60;99.90;;;;;;8276551;28;20191;-63
2022/04/16 02:14:13;;;;;;;2.83;2.37;;;3.60;99.90;;;;;;8281886;28;20195;-65
2022/04/16 02:18:13;;;;;;;3.63;2.10;;;3.60;99.90;;;;;;8287020;28;20183;-61
2022/04/16 02:22:16;;;;;;;2.60;1.97;;;3.50;99.90;;;;;;8281208;28;20214;-64
2022/04/16 02:26:17;;;;;;;5.67;2.07;;;3.50;99.90;;;;;;8281681;28;20206;-63
2022/04/16 02:30:19;;;;;;;2.37;1.80;;;3.50;99.90;;;;;;8290796;28;20656;-64
2022/04/16 02:34:20;;;;;;;2.53;1.73;;;3.40;99.90;;;;;;8280538;28;20330;-63
2022/04/16 02:38:21;;;;;;;2.53;1.73;;;3.30;99.90;;;;;;8294600;28;20234;-64
2022/04/16 02:42:22;;;;;;;4.70;2.03;;;3.30;99.90;;;;;;8289858;28;20226;-71
2022/04/16 02:50:43;;;;;;;3.40;2.00;;;3.10;99.90;;;;;;8296616;28;20241;-64
2022/04/16 02:54:44;;;;;;;2.67;1.73;;;3.10;99.90;;;;;;8288313;28;20198;-63
2022/04/16 02:58:44;;;;;;;3.80;1.63;;;3.00;99.90;;;;;;8286984;28;20191;-62
2022/04/16 03:02:46;;;;;;;3.37;1.50;;;3.00;99.90;;;;;;8284688;28;20197;-63
2022/04/16 03:06:46;;;;;;;3.30;1.67;;;2.90;99.90;;;;;;8283034;28;20190;-65
2022/04/16 03:10:47;;;;;;;3.10;1.60;;;2.90;99.90;;;;;;8289660;28;20251;-64
2022/04/16 03:19:07;;;;;;;1.90;1.60;;;2.80;99.90;;;;;;8291079;28;20307;-62
2022/04/16 03:23:09;;;;;;;2.67;1.40;;;2.80;99.90;;;;;;8294898;28;20184;-64
2022/04/16 03:27:10;;;;;;;2.67;1.60;;;2.70;99.90;;;;;;8285197;28;20230;-63
2022/04/16 03:31:11;;;;;;;3.03;1.27;;;2.60;99.90;;;;;;8287972;28;20191;-64
2022/04/16 03:35:11;;;;;;;1.83;1.20;;;2.50;99.90;;;;;;8280398;28;20195;-66
2022/04/16 03:39:12;;;;;;;2.10;1.50;;;2.50;99.90;;;;;;8285195;28;20286;-65
2022/04/16 03:43:14;;;;;;;2.23;1.50;;;2.40;99.90;;;;;;8294664;28;20187;-65
2022/04/16 03:47:14;;;;;;;3.03;1.47;;;2.40;99.90;;;;;;8286193;28;20195;-66
2022/04/16 03:51:15;;;;;;;3.07;1.63;;;2.30;99.90;;;;;;8283770;28;20220;-64
2022/04/16 04:04:00;;;;;;;2.60;1.33;;;2.30;99.90;;;;;;8284957;28;20308;-65
2022/04/16 04:08:00;;;;;;;2.43;1.30;;;2.30;99.90;;;;;;8289240;28;20191;-64
2022/04/16 04:12:01;;;;;;;3.43;1.60;;;2.30;99.90;;;;;;8297008;28;20282;-63
2022/04/16 04:16:02;;;;;;;2.33;1.47;;;2.20;99.90;;;;;;8288959;28;20190;-66
2022/04/16 04:20:04;;;;;;;4.60;1.63;;;2.20;99.90;;;;;;8298931;28;20241;-64
2022/04/16 04:24:04;;;;;;;2.97;1.20;;;2.20;99.90;;;;;;8300591;28;20274;-64
2022/04/16 04:28:05;;;;;;;1.47;1.27;;;2.10;99.90;;;;;;8293667;28;20206;-62
2022/04/16 04:32:06;;;;;;;7.40;1.90;;;2.10;99.90;;;;;;8292558;28;20191;-62
2022/04/16 04:36:07;;;;;;;3.57;1.37;;;2.10;99.90;;;;;;8284088;28;20277;-67
2022/04/16 04:40:08;;;;;;;3.40;1.33;;;2.10;99.90;;;;;;8298825;28;20231;-63
2022/04/16 04:44:13;;;;;;;2.03;1.30;;;2.10;99.90;;;;;;8292980;28;20206;-64
2022/04/16 04:48:14;;;;;;;2.20;1.23;;;2.10;99.90;;;;;;8283127;28;20191;-64
2022/04/16 04:52:29;;;;;;;1.77;1.40;;;2.10;99.90;;;;;;8292206;28;20183;-63
2022/04/16 04:56:30;;;;;;;3.63;1.73;;;2.10;99.90;;;;;;8283227;28;20501;-64
2022/04/16 05:00:31;;;;;;;3.63;1.37;;;2.20;99.90;;;;;;8297729;28;20238;-62
2022/04/16 05:04:32;;;;;;;3.53;1.40;;;2.20;99.90;;;;;;8294298;28;20553;-65
2022/04/16 05:08:33;;;;;;;2.70;1.53;;;2.20;99.90;;;;;;8283296;28;20187;-65
2022/04/16 05:12:34;;;;;;;4.33;1.77;;;2.20;99.90;;;;;;8290254;28;20199;-64
2022/04/16 05:16:35;;;;;;;5.97;1.40;;;2.10;99.90;;;;;;8282472;28;20194;-64
2022/04/16 05:20:36;;;;;;;3.10;1.93;;;2.20;99.90;;;;;;8287131;28;20226;-70
2022/04/16 05:24:37;;;;;;;3.23;1.63;;;2.20;99.90;;;;;;8288497;28;20278;-63
2022/04/16 05:28:39;;;;;;;3.37;1.60;;;2.20;99.90;;;;;;8282047;28;20213;-62
2022/04/16 05:32:42;;;;;;;3.40;1.80;;;2.20;99.90;;;;;;8292543;28;20202;-64
2022/04/16 05:36:44;;;;;;;2.43;1.90;;;2.10;99.90;;;;;;8291394;28;20233;-65
2022/04/16 05:40:45;;;;;;;3.53;1.40;;;2.20;99.90;;;;;;8291209;28;20215;-65
2022/04/16 05:44:46;;;;;;;3.17;1.50;;;2.20;99.90;;;;;;8283361;28;20183;-64
2022/04/16 05:48:47;;;;;;;5.80;1.30;;;2.30;99.90;;;;;;8293399;28;20316;-63
2022/04/16 05:52:49;;;;;;;3.17;1.77;;;2.30;99.90;;;;;;8288076;28;20202;-65
2022/04/16 05:56:49;;;;;;;2.97;2.00;;;2.40;99.90;;;;;;8282267;28;20245;-68
2022/04/16 06:00:50;;;;;;;3.40;1.73;;;2.50;99.90;;;;;;8281785;28;20211;-66
2022/04/16 06:04:51;;;;;;;2.73;1.73;;;2.60;99.90;;;;;;8280712;28;20188;-65
2022/04/16 06:08:52;;;;;;;4.10;2.00;;;2.60;99.90;;;;;;8286072;28;20191;-65
2022/04/16 06:12:53;;;;;;;2.33;1.70;;;2.80;99.90;;;;;;8277154;28;20194;-65
2022/04/16 06:16:54;;;;;;;2.97;1.30;;;3.00;99.90;;;;;;8279938;28;20186;-65
2022/04/16 06:20:56;;;;;;;5.23;1.63;;;3.20;99.90;;;;;;8288675;28;20303;-65
2022/04/16 06:24:57;;;;;;;5.63;2.10;;;3.40;99.90;;;;;;8280628;28;20275;-63
2022/04/16 06:28:58;;;;;;;5.23;2.13;;;3.50;99.90;;;;;;8283138;28;20279;-65
2022/04/16 06:32:58;;;;;;;5.87;3.37;;;3.70;99.90;;;;;;8286703;28;20187;-63
2022/04/16 06:36:59;;;;;;;22.83;10.20;;;3.90;99.90;;;;;;8278139;28;20275;-63
2022/04/16 06:41:00;;;;;;;8.40;4.03;;;4.40;99.90;;;;;;8279515;28;20243;-66
2022/04/16 06:45:01;;;;;;;49.47;19.60;;;4.60;99.90;;;;;;8280932;28;20185;-65
2022/04/16 06:49:02;;;;;;;2.67;2.40;;;4.80;1.00;;;;;;8285331;28;20221;-64
2022/04/16 06:53:03;;;;;;;9.97;5.03;;;4.90;99.90;;;;;;8281262;28;20218;-63
2022/04/16 06:57:04;;;;;;;14.07;5.70;;;4.80;1.00;;;;;;8282267;28;20194;-63
2022/04/16 07:01:05;;;;;;;43.37;17.33;;;5.00;1.00;;;;;;8280748;28;20218;-62
2022/04/16 07:05:07;;;;;;;56.40;23.60;;;5.10;1.00;;;;;;8282743;28;20194;-62
2022/04/16 07:09:07;;;;;;;28.93;13.53;;;5.30;1.00;;;;;;8282065;28;20180;-61
2022/04/16 07:13:08;;;;;;;24.60;9.97;;;5.70;99.90;;;;;;8282068;28;20197;-61
2022/04/16 07:17:09;;;;;;;28.83;12.43;;;6.00;99.90;;;;;;8290209;28;20194;-63
2022/04/16 07:21:10;;;;;;;21.40;12.73;;;6.10;99.90;;;;;;8283909;28;20203;-63
2022/04/16 07:25:11;;;;;;;4.80;2.57;;;6.20;99.90;;;;;;8283902;28;20182;-71
2022/04/16 07:29:11;;;;;;;11.67;5.80;;;6.20;1.00;;;;;;8285357;28;20249;-63
2022/04/16 07:33:12;;;;;;;15.80;7.53;;;6.30;99.90;;;;;;8290264;28;20262;-62
2022/04/16 07:37:13;;;;;;;5.07;3.27;;;6.40;1.00;;;;;;8279524;28;20222;-63
2022/04/16 07:41:14;;;;;;;5.03;3.23;;;6.40;20.50;;;;;;8293025;28;20219;-62
2022/04/16 07:45:14;;;;;;;24.97;11.13;;;6.50;1.00;;;;;;8286051;28;20186;-64
2022/04/16 07:49:17;;;;;;;7.67;3.90;;;6.60;5.10;;;;;;8295578;28;20191;-60
2022/04/16 07:53:18;;;;;;;4.20;3.03;;;6.60;1.00;;;;;;8289579;28;20187;-61
2022/04/16 07:57:19;;;;;;;12.77;6.87;;;6.40;99.90;;;;;;8286420;28;20191;-62
2022/04/16 08:01:20;;;;;;;20.33;7.83;;;6.00;69.20;;;;;;8293594;28;20219;-65
2022/04/16 08:05:21;;;;;;;7.33;3.63;;;6.00;1.00;;;;;;8292713;28;20194;-62
2022/04/16 08:09:21;;;;;;;14.37;6.67;;;6.10;1.00;;;;;;8285793;28;20202;-63
2022/04/16 08:13:23;;;;;;;9.43;5.13;;;6.20;99.90;;;;;;8284710;28;20210;-63
2022/04/16 08:17:24;;;;;;;13.23;6.60;;;6.50;1.00;;;;;;8284317;28;20218;-60
2022/04/16 08:21:29;;;;;;;3.87;2.33;;;6.60;99.90;;;;;;8283452;28;20347;-65
2022/04/16 08:29:30;;;;;;;5.27;2.93;;;6.40;99.90;;;;;;8285833;28;20241;-61
2022/04/16 08:33:31;;;;;;;6.97;4.00;;;6.50;1.00;;;;;;8288751;28;20281;-61
2022/04/16 08:37:32;;;;;;;8.10;4.03;;;6.60;1.00;;;;;;8286073;28;20705;-62
2022/04/16 08:41:33;;;;;;;3.80;2.23;;;6.60;1.00;;;;;;8293174;28;20230;-61
2022/04/16 08:45:36;;;;;;;11.67;6.23;;;6.50;18.90;;;;;;8285307;28;20195;-62
2022/04/16 08:49:38;;;;;;;8.83;4.53;;;6.60;71.50;;;;;;8286325;28;20286;-65
2022/04/16 08:53:39;;;;;;;5.57;3.10;;;7.10;18.80;;;;;;8280012;28;20194;-63
2022/04/16 08:57:41;;;;;;;4.17;2.27;;;7.80;1.00;;;;;;8286454;28;20199;-62
2022/04/16 09:01:42;;;;;;;2.33;1.87;;;8.60;99.90;;;;;;8287614;28;20309;-62
2022/04/16 09:05:45;;;;;;;4.43;2.70;;;8.80;60.40;;;;;;8287507;28;20195;-64
2022/04/16 09:09:45;;;;;;;5.47;3.37;;;8.60;95.40;;;;;;8278086;28;20187;-62
2022/04/16 09:13:49;;;;;;;6.23;3.67;;;8.50;96.30;;;;;;8287549;28;20270;-63
2022/04/16 09:17:59;;;;;;;6.83;4.80;;;8.40;99.90;;;;;;8285276;28;20211;-63
2022/04/16 09:22:00;;;;;;;7.57;4.63;;;8.40;1.00;;;;;;8295706;28;20221;-62
2022/04/16 09:26:01;;;;;;;4.30;3.10;;;8.50;93.80;;;;;;8283689;28;20186;-62
2022/04/16 09:30:05;;;;;;;5.43;2.97;;;9.00;1.00;;;;;;8296094;28;20195;-62
2022/04/16 09:34:24;;;;;;;5.63;2.63;;;8.60;36.90;;;;;;8287829;28;20190;-64
2022/04/16 09:38:27;;;;;;;8.23;4.87;;;8.40;99.90;;;;;;8285325;28;20219;-62
2022/04/16 09:42:28;;;;;;;2.77;2.10;;;8.80;32.20;;;;;;8295453;28;20229;-60
2022/04/16 09:46:31;;;;;;;4.43;2.93;;;9.20;1.00;;;;;;8287298;28;20194;-61
2022/04/16 09:50:32;;;;;;;4.60;2.53;;;9.90;1.00;;;;;;8290392;28;20194;-60
2022/04/16 09:54:34;;;;;;;4.67;3.13;;;10.30;1.00;;;;;;8291176;28;20195;-61
2022/04/16 09:58:37;;;;;;;6.20;3.20;;;10.20;99.90;;;;;;8279767;28;20265;-62
2022/04/16 10:02:40;;;;;;;6.60;4.00;;;9.90;99.90;;;;;;8281120;28;20219;-61
2022/04/16 10:06:42;;;;;;;9.57;4.70;;;10.20;99.90;;;;;;8281331;28;20208;-64
2022/04/16 10:10:46;;;;;;;4.20;2.83;;;10.40;99.90;;;;;;8282478;28;20275;-60
2022/04/16 10:15:10;;;;;;;1.97;1.50;;;10.60;99.90;;;;;;8297753;28;20188;-62
2022/04/16 10:19:17;;;;;;;11.97;6.90;;;10.30;99.90;;;;;;8284748;28;20272;-63
2022/04/16 10:23:32;;;;;;;5.13;3.83;;;9.30;1.00;;;;;;8289181;28;20190;-64
2022/04/16 10:27:42;;;;;;;4.57;2.97;;;9.00;99.90;;;;;;8287482;28;20207;-63
2022/04/16 10:31:49;;;;;;;5.80;3.37;;;9.00;99.90;;;;;;8288011;28;20183;-60
2022/04/16 10:35:56;;;;;;;5.20;3.40;;;9.30;99.90;;;;;;8283295;28;20179;-63
2022/04/16 10:39:56;;;;;;;7.57;4.17;;;9.80;99.90;;;;;;8289092;28;20289;-60
2022/04/16 10:43:59;;;;;;;7.47;3.37;;;10.30;99.90;;;;;;8288183;28;20195;-63
2022/04/16 10:48:02;;;;;;;5.73;3.17;;;10.10;1.00;;;;;;8286378;28;20183;-64
2022/04/16 10:52:03;;;;;;;3.33;1.77;;;9.30;1.00;;;;;;8287181;28;20199;-62
2022/04/16 10:56:14;;;;;;;6.27;2.50;;;9.10;99.90;;;;;;8287362;28;20191;-61
2022/04/16 11:00:15;;;;;;;2.63;1.70;;;9.20;99.90;;;;;;8291940;28;20257;-62
2022/04/16 11:04:16;;;;;;;7.60;4.27;;;9.90;99.90;;;;;;8296921;28;20189;-63
2022/04/16 11:08:18;;;;;;;5.60;2.47;;;10.20;99.90;;;;;;8286383;28;20223;-62
2022/04/16 11:12:20;;;;;;;4.37;2.90;;;10.20;99.90;;;;;;8293565;28;20195;-61
2022/04/16 11:16:22;;;;;;;2.33;1.50;;;10.00;99.90;;;;;;8288319;28;20234;-65
2022/04/16 11:20:25;;;;;;;5.40;2.93;;;10.10;99.90;;;;;;8294556;28;20228;-60
2022/04/16 11:24:26;;;;;;;8.10;3.90;;;10.50;99.90;;;;;;8294858;28;20193;-63
2022/04/16 11:37:08;;;;;;;5.13;2.20;;;10.40;99.90;;;;;;8279924;28;20354;-60
2022/04/16 11:41:11;;;;;;;2.03;1.10;;;10.70;99.90;;;;;;8286648;28;20226;-66
2022/04/16 11:45:14;;;;;;;3.30;1.60;;;10.40;99.90;;;;;;8286540;28;20196;-60
2022/04/16 11:49:15;;;;;;;7.33;3.40;;;10.40;99.90;;;;;;8289064;28;20188;-61
2022/04/16 11:53:16;;;;;;;3.47;1.53;;;11.00;99.90;;;;;;8285027;28;20257;-62
2022/04/16 11:57:21;;;;;;;13.60;5.00;;;11.00;99.90;;;;;;8288440;28;20288;-62
2022/04/16 12:01:23;;;;;;;8.53;3.70;;;10.70;99.90;;;;;;8283926;28;20307;-61
2022/04/16 12:05:31;;;;;;;7.23;3.20;;;11.00;99.90;;;;;;8288937;28;20243;-61
2022/04/16 12:09:33;;;;;;;1.43;1.00;;;11.30;99.90;;;;;;8283684;28;20197;-62
2022/04/16 12:13:41;;;;;;;1.17;0.93;;;11.10;99.90;;;;;;8288154;28;20193;-64
2022/04/16 12:17:42;;;;;;;2.47;1.10;;;10.60;99.90;;;;;;8287175;28;20195;-63
2022/04/16 12:21:43;;;;;;;1.63;0.90;;;10.40;99.90;;;;;;8295377;28;20225;-63
2022/04/16 12:25:43;;;;;;;4.13;2.10;;;10.60;99.90;;;;;;8300866;28;20217;-62
2022/04/16 12:29:48;;;;;;;4.80;2.87;;;10.90;99.90;;;;;;8286250;28;20224;-62
2022/04/16 12:33:49;;;;;;;6.60;3.27;;;10.90;99.90;;;;;;8283923;28;20195;-62
2022/04/16 12:37:51;;;;;;;3.20;2.33;;;10.60;99.90;;;;;;8283995;28;20188;-65
2022/04/16 12:41:52;;;;;;;6.93;4.23;;;10.80;99.90;;;;;;8285302;28;20247;-62
2022/04/16 12:45:53;;;;;;;3.30;2.33;;;11.10;99.90;;;;;;8284074;28;20189;-63
2022/04/16 12:49:54;;;;;;;6.90;4.73;;;11.70;64.40;;;;;;8292199;28;20232;-64
2022/04/16 12:53:55;;;;;;;4.57;2.00;;;12.20;92.70;;;;;;8295229;28;20267;-63
2022/04/16 12:57:56;;;;;;;2.33;0.97;;;11.70;99.90;;;;;;8288284;28;20255;-62
2022/04/16 13:01:57;;;;;;;3.00;2.23;;;10.80;99.90;;;;;;8281533;28;20529;-63
2022/04/16 13:05:58;;;;;;;1.80;0.90;;;10.70;99.90;;;;;;8286447;28;20192;-64
2022/04/16 13:09:58;;;;;;;7.80;4.93;;;10.90;99.90;;;;;;8293328;28;20201;-62
2022/04/16 13:13:59;;;;;;;16.00;7.83;;;11.20;99.90;;;;;;8298653;28;20199;-63
2022/04/16 13:18:00;;;;;;;2.40;1.40;;;11.70;99.90;;;;;;8290176;28;20193;-63
2022/04/16 13:22:02;;;;;;;3.87;1.53;;;11.70;99.90;;;;;;8292541;28;20238;-63
2022/04/16 13:26:03;;;;;;;1.17;0.90;;;11.40;99.90;;;;;;8290660;28;20270;-62
2022/04/16 13:30:05;;;;;;;4.17;1.90;;;11.40;99.90;;;;;;8295908;28;20214;-63
2022/04/16 13:34:06;;;;;;;23.40;11.30;;;11.40;99.90;;;;;;8284715;28;20200;-61
2022/04/16 13:38:07;;;;;;;4.60;2.53;;;11.80;96.90;;;;;;8295052;28;20210;-63
2022/04/16 13:42:08;;;;;;;7.00;5.37;;;11.80;99.90;;;;;;8281665;28;20264;-62
2022/04/16 13:46:10;;;;;;;2.07;1.33;;;11.50;99.90;;;;;;8279820;28;20501;-63
2022/04/16 13:50:11;;;;;;;7.17;3.20;;;11.30;99.90;;;;;;8282625;28;20192;-61
2022/04/16 13:54:11;;;;;;;4.47;2.70;;;11.10;99.90;;;;;;8290215;28;20248;-63
2022/04/16 13:58:12;;;;;;;6.30;3.50;;;11.20;99.90;;;;;;8279376;28;20255;-60
2022/04/16 14:02:13;;;;;;;4.50;3.20;;;11.50;99.90;;;;;;8280804;28;20220;-63
2022/04/16 14:06:14;;;;;;;5.23;3.60;;;12.00;99.90;;;;;;8293473;28;20183;-62
2022/04/16 14:10:15;;;;;;;3.20;1.90;;;12.10;77.10;;;;;;8280626;28;20184;-64
2022/04/16 14:14:16;;;;;;;4.50;1.67;;;11.70;97.30;;;;;;8279098;28;20322;-67
2022/04/16 14:18:17;;;;;;;2.07;1.17;;;11.20;99.90;;;;;;8288035;28;20186;-64
2022/04/16 14:22:18;;;;;;;2.80;1.40;;;11.00;99.90;;;;;;8284260;28;20215;-66
2022/04/16 14:26:19;;;;;;;2.80;1.40;;;11.10;99.90;;;;;;8292480;28;20197;-63
2022/04/16 14:30:21;;;;;;;2.30;1.60;;;11.10;99.90;;;;;;8298902;28;20204;-66
2022/04/16 14:34:23;;;;;;;2.60;1.53;;;11.30;99.90;;;;;;8289257;28;20190;-61
2022/04/16 14:38:24;;;;;;;1.40;0.97;;;11.20;99.90;;;;;;8288772;28;20209;-64
2022/04/16 14:42:25;;;;;;;5.03;2.97;;;10.90;99.90;;;;;;8291633;28;20388;-65
2022/04/16 14:46:26;;;;;;;2.80;1.90;;;10.80;99.90;;;;;;8287139;28;20197;-64
2022/04/16 14:50:27;;;;;;;7.90;4.10;;;11.00;99.90;;;;;;8289898;28;20235;-61
2022/04/16 14:54:28;;;;;;;2.30;1.70;;;11.10;99.90;;;;;;8288454;28;20189;-63
2022/04/16 14:58:33;;;;;;;3.13;1.03;;;11.50;99.90;;;;;;8286310;28;20277;-64
2022/04/16 15:02:34;;;;;;;17.17;10.37;;;11.60;99.90;;;;;;8285218;28;20313;-61
2022/04/16 15:06:35;;;;;;;28.83;14.57;;;11.60;62.00;;;;;;8280260;28;20193;-65
2022/04/16 15:10:35;;;;;;;6.87;4.17;;;11.40;97.50;;;;;;8293669;28;20209;-64
2022/04/16 15:14:36;;;;;;;2.93;1.83;;;11.40;77.00;;;;;;8282141;28;20201;-64
2022/04/16 15:18:37;;;;;;;3.20;1.70;;;11.60;99.90;;;;;;8289257;28;20193;-64
2022/04/16 15:22:40;;;;;;;4.50;3.63;;;11.60;99.90;;;;;;8289818;28;20220;-63
2022/04/16 15:26:41;;;;;;;5.20;4.00;;;11.50;99.90;;;;;;8277970;28;20186;-62
2022/04/16 15:30:41;;;;;;;3.30;2.33;;;11.50;99.90;;;;;;8292816;28;20273;-64
2022/04/16 15:34:43;;;;;;;8.50;4.80;;;11.60;99.90;;;;;;8300931;28;20225;-62
2022/04/16 15:38:44;;;;;;;8.73;4.93;;;11.70;99.90;;;;;;8300747;28;20277;-62
2022/04/16 15:42:45;;;;;;;6.77;3.60;;;11.80;86.70;;;;;;8292774;28;20215;-64
2022/04/16 15:46:45;;;;;;;6.37;3.40;;;11.90;64.90;;;;;;8299790;28;20190;-62
2022/04/16 15:50:46;;;;;;;12.70;6.17;;;11.90;53.60;;;;;;8290219;28;20200;-62
2022/04/16 15:54:47;;;;;;;3.73;1.67;;;11.80;99.90;;;;;;8291895;28;20201;-64
2022/04/16 15:58:49;;;;;;;3.43;1.67;;;11.70;27.80;;;;;;8291556;28;20199;-63
2022/04/16 16:02:50;;;;;;;2.17;1.50;;;11.40;75.10;;;;;;8293284;28;20217;-65
2022/04/16 16:06:51;;;;;;;10.53;6.73;;;11.40;82.80;;;;;;8289397;28;20205;-62
2022/04/16 16:10:52;;;;;;;12.17;6.83;;;11.40;95.00;;;;;;8297398;28;20217;-61
2022/04/16 16:14:53;;;;;;;7.67;4.60;;;11.40;75.40;;;;;;8286486;28;20226;-65
2022/04/16 16:18:54;;;;;;;5.57;3.37;;;11.20;79.50;;;;;;8280894;28;20283;-64
2022/04/16 16:22:56;;;;;;;9.93;5.83;;;11.10;99.90;;;;;;8283035;28;20221;-62
2022/04/16 16:26:57;;;;;;;2.57;1.80;;;11.00;99.90;;;;;;8278821;28;20195;-64
2022/04/16 16:30:58;;;;;;;2.83;1.20;;;10.90;99.90;;;;;;8294935;28;20194;-64
2022/04/16 16:34:59;;;;;;;2.23;1.27;;;10.60;99.90;;;;;;8290707;28;20214;-63
2022/04/16 16:39:00;;;;;;;2.70;1.03;;;10.40;99.90;;;;;;8286168;28;20211;-65
2022/04/16 16:43:01;;;;;;;17.50;8.57;;;10.40;99.90;;;;;;8290056;28;20608;-66
2022/04/16 16:47:03;;;;;;;7.40;4.23;;;10.40;99.90;;;;;;8279652;28;20194;-64
2022/04/16 16:51:04;;;;;;;21.47;11.97;;;10.40;99.90;;;;;;8284513;28;20188;-63
2022/04/16 16:55:07;;;;;;;11.43;7.10;;;10.30;99.90;;;;;;8291814;28;20202;-64
2022/04/16 16:59:08;;;;;;;8.73;5.23;;;10.20;99.90;;;;;;8275253;28;20199;-63
2022/04/16 17:07:30;;;;;;;6.03;3.47;;;10.10;99.90;;;;;;8271222;28;20204;-64
2022/04/16 17:11:31;;;;;;;5.70;3.73;;;10.00;99.90;;;;;;8280089;28;20295;-64
2022/04/16 17:19:51;;;;;;;6.10;3.30;;;9.80;99.90;;;;;;8277347;28;20271;-65
2022/04/16 17:23:52;;;;;;;9.50;4.87;;;9.70;99.90;;;;;;8290338;28;20191;-66
2022/04/16 17:27:53;;;;;;;6.87;4.87;;;9.60;99.90;;;;;;8273684;28;20270;-65
2022/04/16 17:31:55;;;;;;;4.50;3.03;;;9.40;99.90;;;;;;8280080;28;20575;-65
2022/04/16 17:35:57;;;;;;;8.30;5.10;;;9.30;99.90;;;;;;8290369;28;20198;-64
2022/04/16 17:39:58;;;;;;;8.07;4.10;;;9.00;99.90;;;;;;8290249;28;20296;-66
2022/04/16 17:43:59;;;;;;;7.47;3.97;;;8.90;99.90;;;;;;8295930;28;20188;-67
2022/04/16 17:47:59;;;;;;;4.97;3.70;;;8.70;99.90;;;;;;8279865;28;20191;-66
2022/04/16 17:52:01;;;;;;;5.87;4.13;;;8.50;99.90;;;;;;8285902;28;20186;-64
2022/04/16 17:56:01;;;;;;;4.13;2.90;;;8.30;1.00;;;;;;8285718;28;20191;-63
2022/04/16 18:00:04;;;;;;;3.93;2.50;;;7.90;99.90;;;;;;8288081;28;20341;-65
2022/04/16 18:04:05;;;;;;;11.23;9.37;;;7.50;99.90;;;;;;8287062;28;20191;-64
2022/04/16 18:08:06;;;;;;;24.30;16.67;;;7.10;18.30;;;;;;8286385;28;20210;-67
2022/04/16 18:12:07;;;;;;;26.80;18.87;;;6.80;99.90;;;;;;8279252;28;20187;-65
2022/04/16 18:16:08;;;;;;;18.73;12.20;;;6.40;1.00;;;;;;8286817;28;20201;-65
2022/04/16 18:20:11;;;;;;;23.50;13.67;;;6.20;1.00;;;;;;8289123;28;20221;-68
2022/04/16 18:24:14;;;;;;;22.17;12.37;;;5.90;1.00;;;;;;8290322;28;20195;-67
2022/04/16 18:28:15;;;;;;;32.70;19.20;;;5.80;99.90;;;;;;8278526;28;20195;-67
2022/04/16 18:32:16;;;;;;;43.27;23.47;;;5.60;99.90;;;;;;8281895;28;20214;-67
2022/04/16 18:36:17;;;;;;;22.23;12.63;;;5.40;34.50;;;;;;8281186;28;20205;-66
2022/04/16 18:40:19;;;;;;;10.43;5.70;;;5.10;99.90;;;;;;8280777;28;20214;-67
2022/04/16 18:44:19;;;;;;;8.53;5.20;;;4.90;1.00;;;;;;8289963;28;20214;-68
2022/04/16 18:48:21;;;;;;;8.83;5.13;;;4.70;99.90;;;;;;8261974;28;20231;-67
2022/04/16 18:52:32;;;;;;;11.37;6.03;;;4.60;1.00;;;;;;8245084;28;20239;-67
2022/04/16 18:56:34;;;;;;;7.07;4.20;;;4.40;99.40;;;;;;8247825;28;20188;-67
2022/04/16 19:09:14;;;;;;;4.93;3.07;;;4.00;99.90;;;;;;8246719;28;20229;-67
2022/04/16 19:13:15;;;;;;;4.53;2.70;;;3.80;12.30;;;;;;8253585;28;20193;-67
2022/04/16 19:17:16;;;;;;;4.00;3.17;;;3.70;99.90;;;;;;8249048;28;20190;-68
2022/04/16 19:21:17;;;;;;;3.47;2.50;;;3.60;99.90;;;;;;8251558;28;20203;-67
2022/04/16 19:25:18;;;;;;;5.27;3.43;;;3.40;1.00;;;;;;8247581;28;20547;-67
2022/04/16 19:29:22;;;;;;;4.80;2.47;;;3.30;99.90;;;;;;8248034;28;20207;-67
2022/04/16 19:33:23;;;;;;;5.47;3.50;;;3.20;1.00;;;;;;8257090;28;20240;-67
2022/04/16 19:37:24;;;;;;;4.43;2.77;;;3.10;15.50;;;;;;8252714;28;20363;-67
2022/04/16 19:41:26;;;;;;;5.47;3.50;;;3.00;99.90;;;;;;8244037;28;20220;-67
2022/04/16 19:45:29;;;;;;;9.20;6.60;;;2.80;99.90;;;;;;8244670;28;20192;-68
2022/04/16 19:49:30;;;;;;;5.17;3.83;;;2.70;1.00;;;;;;8245605;28;20279;-67
2022/04/16 19:53:31;;;;;;;3.70;2.60;;;2.60;1.00;;;;;;8250602;28;20223;-67
2022/04/16 19:57:33;;;;;;;3.20;2.00;;;2.50;49.60;;;;;;8245383;28;20194;-68
2022/04/16 20:01:34;;;;;;;2.73;1.97;;;2.40;99.90;;;;;;8245240;28;20216;-67
2022/04/16 20:05:34;;;;;;;2.23;1.60;;;2.40;99.90;;;;;;8247556;28;20192;-68
2022/04/16 20:13:56;;;;;;;1.43;1.20;;;2.40;99.90;;;;;;8245744;28;20195;-68
2022/04/16 20:17:57;;;;;;;2.93;1.20;;;2.50;99.90;;;;;;8248603;28;20191;-68
2022/04/16 20:21:58;;;;;;;1.57;1.23;;;2.60;99.90;;;;;;8244419;28;20242;-67
2022/04/16 20:25:59;;;;;;;1.70;1.37;;;2.60;99.90;;;;;;8245409;28;20187;-65
2022/04/16 20:30:00;;;;;;;1.97;1.40;;;2.60;99.90;;;;;;8247349;28;20234;-65
2022/04/16 20:34:01;;;;;;;1.53;1.20;;;2.60;99.90;;;;;;8242504;28;20188;-68
2022/04/16 20:38:03;;;;;;;1.93;1.07;;;2.60;1.00;;;;;;8251615;28;20283;-65
2022/04/16 20:46:23;;;;;;;3.10;1.50;;;2.70;1.00;;;;;;8246803;28;20249;-65
2022/04/16 20:50:24;;;;;;;1.53;1.30;;;2.70;1.00;;;;;;8241846;28;20188;-65
2022/04/16 20:54:25;;;;;;;2.97;1.40;;;2.80;1.00;;;;;;8247374;28;20195;-66
2022/04/16 20:58:25;;;;;;;1.80;1.40;;;2.80;1.00;;;;;;8245705;28;20188;-65
2022/04/16 21:02:26;;;;;;;3.80;1.60;;;2.70;99.90;;;;;;8253386;28;20216;-65
2022/04/16 21:06:30;;;;;;;2.10;1.47;;;2.70;99.90;;;;;;8244336;28;20184;-65
2022/04/16 21:10:31;;;;;;;4.00;1.73;;;2.60;99.90;;;;;;8251926;28;20239;-65
2022/04/16 21:14:33;;;;;;;2.93;1.83;;;2.60;99.90;;;;;;8250653;28;20196;-65
2022/04/16 21:18:33;;;;;;;2.03;1.60;;;2.50;99.90;;;;;;8251679;28;20188;-65
2022/04/16 21:22:35;;;;;;;2.43;1.73;;;2.40;99.90;;;;;;8245637;28;20227;-65
2022/04/16 21:26:36;;;;;;;2.47;1.70;;;2.30;99.90;;;;;;8244178;28;20188;-65
2022/04/16 21:30:37;;;;;;;3.33;1.93;;;2.20;99.90;;;;;;8250884;28;20190;-65
2022/04/16 21:34:38;;;;;;;2.53;1.90;;;2.10;99.90;;;;;;8262649;28;20216;-65
2022/04/16 21:38:40;;;;;;;3.37;2.20;;;1.90;99.90;;;;;;8253011;28;20218;-64
2022/04/16 21:42:40;;;;;;;3.83;2.27;;;1.90;99.90;;;;;;8256297;28;20262;-65
2022/04/16 21:46:41;;;;;;;2.27;2.07;;;1.80;99.90;;;;;;8250866;28;20415;-65
2022/04/16 21:50:42;;;;;;;3.67;2.20;;;1.60;1.00;;;;;;8253477;28;20192;-65
2022/04/16 21:54:43;;;;;;;3.50;2.37;;;1.60;1.00;;;;;;8248643;28;20191;-65
2022/04/16 21:58:44;;;;;;;3.27;2.00;;;1.40;1.00;;;;;;8247585;28;20187;-66
2022/04/16 22:02:45;;;;;;;3.23;1.93;;;1.40;1.00;;;;;;8245051;28;20274;-65